Hotevilla, AZ (86030)

1:02 PM MST on July 11, 2014 (GMT -0700)
RAWS HOPI AZ US (MQHIA3) Elev 5579 ft | 35.86 °N, 110.61 °W | Change Station

Current weather conditions updated 49 minutes ago

Clear
Clear
88 °F
Feels Like 85 °F
N
7
Wind Variable Wind from SW
Gusts 17.0 mph

Today is forecast to be Cooler than yesterday.

Today
High -- | Low -- °F
--% Chance of Precip.
Yesterday
High -- | Low -- °F
Precip. -- in
5:15 AM 7:40 PM
Waxing Gibbous, 99% visible
Pressure 29.91 in
Visibility 10.0 miles
Clouds Clear
Heat Index 85 °F
Dew Point 47 °F
Humidity 24%
Rainfall 0.00 in
Snow Depth Not available.
UV 13 out of 12
Pollen 4.00 out of 12
Air Quality Not available.
Flu Activity Local Activity
METAR KINW 111956Z AUTO 09004KT 10SM CLR 32/08 A3014 RMK AO2 SLP126 T03170078

More Conditions Fewer Conditions

Pressure 29.91 in
Visibility 10.0 miles
Clouds Clear
Heat Index 85 °F
Dew Point 47 °F
Humidity 24%
Rainfall 0.00 in
Snow Depth Not available.
UV 13 out of 12
Pollen 4.00 out of 12
Air Quality Not available.
Flu Activity Local Activity
METAR KINW 111956Z AUTO 09004KT 10SM CLR 32/08 A3014 RMK AO2 SLP126 T03170078

More Conditions Fewer Conditions

10-Day Weather Forecast

Almanac

Astronomy

Jul. 11, 2014 Rise Set
Actual Time 5:15 AM MST 7:40 PM MST
Civil Twilight 4:45 AM MST 8:10 PM MST
Nautical Twilight 4:08 AM MST 8:47 PM MST
Astronomical Twilight 3:28 AM MST 9:27 PM MST
Moon 6:56 PM MST 4:29 AM MST
Length of Visible Light 15h 25m
Length of Day
14h 25m
Tomorrow will be 1m 1s shorter.
Waxing Gibbous, 99% of the Moon is Illuminated
Today
Waxing Gibbous
Jul 12
Full
Jul 18
Last Quarter
Jul 26
New
Aug 3
First Quarter

Today's Extremes

State Highs State Lows

Community

WunderPhotos

Upload Photos

1,732,548 photos uploaded!

WunderBlogs® & News

Nearby

Snow Depth

Station Depth Elevation
Snowslide Canyon 0 in 9730 ft
Workman Creek 1 in 6900 ft
Beaver Head 0 in 7990 ft

Earthquake Activity

City Distance Mag. Time & Date
No recent earthquake activity has been reported nearby.
Minimum magnitude displayed is 2.5.

Coastal Water Temperatures

Place Temperature
No Stations Reporting

Nearby Weather Stations

Station Location Temp. Heat Index Dew Point Humidity Wind Precip. Elev Updated Type
RAWS HOPI AZ, Kykotsmovi, AZ 88 °F 85 °F 47 °F 24% SW  at  7 mph 0.00 in / hr 5579 ft 12:13 PM MST MADIS

Show More Stations Show Fewer Stations